Time;durP1;ratioP1;P1;durP2;ratioP2;P2;SDS_P1;SDS_P2;PMS_P1;PMS_P2;Temp;Humidity;BMP_temperature;BMP_pressure;BME280_temperature;BME280_humidity;BME280_pressure;Samples;Min_cycle;Max_cycle;Signal;HPM_P1;HPM_P2
2021/12/29 00:00:29;;;;;;;19.77;12.45;;;9.80;59.50;;;;;;5054385;28;20027;-93
2021/12/29 00:02:58;;;;;;;21.98;13.10;;;9.90;59.00;;;;;;5070333;28;20021;-93
2021/12/29 00:05:24;;;;;;;19.58;12.23;;;10.10;58.60;;;;;;5074126;28;20379;-91
2021/12/29 00:07:52;;;;;;;21.17;11.98;;;10.10;58.80;;;;;;5074268;28;20391;-90
2021/12/29 00:10:18;;;;;;;19.60;12.55;;;10.00;59.00;;;;;;5074023;28;20033;-90
2021/12/29 00:12:49;;;;;;;19.63;11.48;;;9.80;59.30;;;;;;5074251;28;20020;-91
2021/12/29 00:15:16;;;;;;;20.83;11.82;;;9.80;59.20;;;;;;5073831;28;20021;-93
2021/12/29 00:17:44;;;;;;;19.65;11.60;;;9.50;59.70;;;;;;5070849;28;20028;-93
2021/12/29 00:20:17;;;;;;;17.45;11.43;;;9.60;59.90;;;;;;5057644;28;20016;-93
2021/12/29 00:22:43;;;;;;;17.90;11.57;;;9.60;59.80;;;;;;5073737;28;20024;-91
2021/12/29 00:25:10;;;;;;;18.65;11.60;;;9.70;59.70;;;;;;5073762;28;20024;-91
2021/12/29 00:27:36;;;;;;;21.83;12.25;;;9.90;59.40;;;;;;5073689;28;20069;-92
2021/12/29 00:30:03;;;;;;;20.92;12.60;;;9.80;59.30;;;;;;5062369;28;20049;-93
2021/12/29 00:32:29;;;;;;;20.25;12.10;;;9.60;59.40;;;;;;5054144;28;20048;-93
2021/12/29 00:34:54;;;;;;;21.33;12.63;;;9.60;59.80;;;;;;5053469;28;20056;-93
2021/12/29 00:37:20;;;;;;;20.73;13.10;;;9.50;60.10;;;;;;5065743;28;20031;-92
2021/12/29 00:39:46;;;;;;;17.92;11.60;;;9.60;60.20;;;;;;5073081;28;20107;-91
2021/12/29 00:42:13;;;;;;;23.08;13.63;;;9.70;59.80;;;;;;5073121;28;20048;-92
2021/12/29 00:44:39;;;;;;;20.15;12.32;;;9.80;59.80;;;;;;5073503;28;20094;-94
2021/12/29 00:47:05;;;;;;;21.48;13.52;;;9.90;59.20;;;;;;5054535;28;20032;-91
2021/12/29 00:49:33;;;;;;;19.25;12.18;;;10.10;59.00;;;;;;5054967;28;20041;-93
2021/12/29 00:52:00;;;;;;;21.10;12.82;;;10.20;58.80;;;;;;5053272;28;20025;-92
2021/12/29 00:54:27;;;;;;;20.52;12.35;;;10.20;58.40;;;;;;5053754;28;20364;-91
2021/12/29 00:56:53;;;;;;;21.67;13.05;;;10.20;58.80;;;;;;5052920;28;20017;-93
2021/12/29 00:59:19;;;;;;;22.23;12.98;;;10.00;58.70;;;;;;5058294;28;20013;-93
2021/12/29 01:01:48;;;;;;;24.70;13.65;;;10.10;58.80;;;;;;5053098;28;20024;-93
2021/12/29 01:04:14;;;;;;;22.42;13.02;;;10.20;58.70;;;;;;5052793;28;20021;-90
2021/12/29 01:06:40;;;;;;;23.42;14.10;;;10.20;58.40;;;;;;5054641;28;20028;-95
2021/12/29 01:09:05;;;;;;;23.65;13.57;;;10.10;58.50;;;;;;5054235;28;20111;-94
2021/12/29 01:11:31;;;;;;;27.52;14.93;;;10.00;58.40;;;;;;5053550;28;20055;-93
2021/12/29 01:13:57;;;;;;;22.55;13.30;;;9.90;59.20;;;;;;5053160;28;20025;-93
2021/12/29 01:19:14;;;;;;;21.50;13.35;;;9.90;59.40;;;;;;5074083;28;20051;-93
2021/12/29 01:21:44;;;;;;;25.35;13.73;;;9.90;59.00;;;;;;5072822;28;20025;-92
2021/12/29 01:24:11;;;;;;;30.95;15.70;;;9.80;59.40;;;;;;5072769;28;20468;-92
2021/12/29 01:26:39;;;;;;;29.25;15.15;;;9.70;59.50;;;;;;5072780;28;20020;-93
2021/12/29 01:29:05;;;;;;;27.60;14.95;;;9.60;59.90;;;;;;5072694;28;20013;-92
2021/12/29 01:31:31;;;;;;;29.30;16.08;;;9.80;59.40;;;;;;5056357;28;20098;-89
2021/12/29 01:33:59;;;;;;;31.15;16.10;;;9.80;59.80;;;;;;5070894;28;20020;-92
2021/12/29 01:36:26;;;;;;;31.33;16.70;;;9.90;59.10;;;;;;5072764;28;20028;-91
2021/12/29 01:38:51;;;;;;;28.27;15.63;;;10.00;58.90;;;;;;5059891;28;20013;-92
2021/12/29 01:41:17;;;;;;;28.33;15.02;;;9.90;59.10;;;;;;5052786;28;20419;-91
2021/12/29 01:43:43;;;;;;;27.40;15.15;;;9.60;59.90;;;;;;5052660;28;20047;-91
2021/12/29 01:46:09;;;;;;;27.55;15.88;;;9.50;60.10;;;;;;5052574;28;20017;-93
2021/12/29 01:48:35;;;;;;;25.92;14.52;;;9.30;61.30;;;;;;5054537;28;20028;-93
2021/12/29 01:51:01;;;;;;;23.35;13.68;;;9.30;60.90;;;;;;5053067;28;20467;-90
2021/12/29 01:53:31;;;;;;;26.17;15.45;;;9.30;60.60;;;;;;5056470;28;20642;-94
2021/12/29 01:55:57;;;;;;;25.25;14.10;;;9.30;60.70;;;;;;5065150;28;20052;-93
2021/12/29 01:58:25;;;;;;;24.10;14.18;;;9.30;60.50;;;;;;5065592;28;20017;-91
2021/12/29 02:00:52;;;;;;;24.77;14.45;;;9.30;60.90;;;;;;5056408;28;20482;-94
2021/12/29 02:03:18;;;;;;;23.33;12.82;;;9.40;60.90;;;;;;5056286;28;20017;-93
2021/12/29 02:05:45;;;;;;;28.92;15.95;;;9.30;60.70;;;;;;5070737;28;20078;-93
2021/12/29 02:08:11;;;;;;;27.52;14.85;;;9.20;60.80;;;;;;5057001;28;20021;-92
2021/12/29 02:10:46;;;;;;;26.92;15.32;;;9.20;61.20;;;;;;5056726;28;20043;-92
2021/12/29 02:13:13;;;;;;;26.00;14.05;;;9.20;61.50;;;;;;5063139;28;20024;-91
2021/12/29 02:15:39;;;;;;;29.65;16.50;;;9.10;61.40;;;;;;5062484;28;20029;-91
2021/12/29 02:18:13;;;;;;;32.60;17.02;;;8.80;61.80;;;;;;5056023;28;20032;-94
2021/12/29 02:20:45;;;;;;;27.90;15.85;;;8.60;62.60;;;;;;5056376;28;20495;-93
2021/12/29 02:23:14;;;;;;;25.65;14.88;;;8.60;62.50;;;;;;5055958;28;20054;-93
2021/12/29 02:25:51;;;;;;;27.70;15.23;;;8.40;63.10;;;;;;5056335;28;20379;-92
2021/12/29 02:28:23;;;;;;;27.50;15.40;;;8.40;63.70;;;;;;5075894;28;20379;-91
2021/12/29 02:30:50;;;;;;;29.27;15.52;;;8.40;63.30;;;;;;5067447;28;20045;-93
2021/12/29 02:33:16;;;;;;;27.08;16.27;;;8.40;63.60;;;;;;5055596;28;20020;-93
2021/12/29 02:35:43;;;;;;;33.72;17.95;;;8.40;63.30;;;;;;5055902;28;20021;-94
2021/12/29 02:38:46;;;;;;;35.22;18.58;;;8.70;62.40;;;;;;5061229;28;20018;-92
2021/12/29 02:41:12;;;;;;;33.30;17.17;;;9.10;61.60;;;;;;4979239;28;20069;-92
2021/12/29 02:43:40;;;;;;;31.33;17.77;;;9.20;61.20;;;;;;4979213;28;20125;-95
2021/12/29 02:46:11;;;;;;;38.90;20.25;;;9.40;60.80;;;;;;4979287;28;20026;-94
2021/12/29 02:48:41;;;;;;;32.10;17.88;;;9.70;60.40;;;;;;4979350;28;20081;-94
2021/12/29 02:51:08;;;;;;;33.42;17.38;;;9.90;60.00;;;;;;4979028;28;20042;-95
2021/12/29 02:53:35;;;;;;;37.72;20.02;;;9.80;59.90;;;;;;4978965;28;20027;-94
2021/12/29 02:56:02;;;;;;;38.70;20.58;;;9.90;59.70;;;;;;4995107;28;20109;-93
2021/12/29 02:58:28;;;;;;;40.92;20.67;;;9.80;60.00;;;;;;4995277;28;20109;-94
2021/12/29 03:00:56;;;;;;;38.00;20.00;;;9.90;59.50;;;;;;4995194;28;20045;-94
2021/12/29 03:03:27;;;;;;;35.75;19.92;;;9.60;59.60;;;;;;4994837;28;20031;-95
2021/12/29 03:05:54;;;;;;;38.40;20.30;;;9.60;60.00;;;;;;4994815;28;20359;-94
2021/12/29 03:08:21;;;;;;;38.75;20.15;;;9.30;60.60;;;;;;4995048;28;20473;-93
2021/12/29 03:10:52;;;;;;;40.17;21.13;;;9.40;60.40;;;;;;4979079;28;20042;-95
2021/12/29 03:13:19;;;;;;;42.42;20.88;;;9.50;60.70;;;;;;4977548;28;20023;-93
2021/12/29 03:15:45;;;;;;;43.90;22.15;;;9.70;60.20;;;;;;4973062;28;20061;-93
2021/12/29 03:18:10;;;;;;;42.03;21.85;;;10.00;59.10;;;;;;5054936;28;20033;-92
2021/12/29 03:20:36;;;;;;;47.78;22.73;;;10.10;59.10;;;;;;5055533;28;20017;-94
2021/12/29 03:23:02;;;;;;;40.60;21.55;;;10.20;58.40;;;;;;5059632;28;20494;-89
2021/12/29 03:25:29;;;;;;;53.08;23.48;;;10.30;58.60;;;;;;5075050;28;20048;-95
2021/12/29 03:28:00;;;;;;;43.45;23.02;;;10.40;58.50;;;;;;5074672;28;20912;-95
2021/12/29 03:30:32;;;;;;;41.65;21.73;;;10.30;58.30;;;;;;5054463;28;20391;-95
2021/12/29 03:33:05;;;;;;;42.00;20.90;;;10.20;58.50;;;;;;5074193;28;20052;-93
2021/12/29 03:35:37;;;;;;;40.58;20.67;;;10.20;58.70;;;;;;5072966;28;20040;-95
2021/12/29 03:38:07;;;;;;;38.45;20.13;;;10.30;58.30;;;;;;5074543;28;20103;-94
2021/12/29 03:40:35;;;;;;;39.28;20.65;;;10.20;58.40;;;;;;5074469;28;20405;-94
2021/12/29 03:43:02;;;;;;;47.70;22.63;;;10.00;58.90;;;;;;5074829;28;20031;-90
2021/12/29 03:45:29;;;;;;;42.88;21.70;;;9.90;59.20;;;;;;5074585;28;20032;-94
2021/12/29 03:47:55;;;;;;;49.65;21.98;;;9.50;60.10;;;;;;5058236;28;20104;-93
2021/12/29 03:50:21;;;;;;;34.13;19.85;;;9.40;60.30;;;;;;5054347;28;20484;-92
2021/12/29 03:52:47;;;;;;;43.42;20.90;;;9.40;60.20;;;;;;5069761;28;20107;-92
2021/12/29 03:55:13;;;;;;;41.53;20.33;;;9.20;61.00;;;;;;5057229;28;20167;-92
2021/12/29 03:57:39;;;;;;;40.72;21.25;;;9.40;61.00;;;;;;5054313;28;20025;-92
2021/12/29 04:00:09;;;;;;;51.35;23.45;;;9.60;60.00;;;;;;5055825;28;20032;-93
2021/12/29 04:02:34;;;;;;;41.78;21.40;;;9.70;60.00;;;;;;5056796;28;20119;-94
2021/12/29 04:05:01;;;;;;;41.40;21.05;;;9.80;59.90;;;;;;5074203;28;20054;-94
2021/12/29 04:07:43;;;;;;;46.45;22.25;;;10.00;59.60;;;;;;5070430;28;20028;-93
2021/12/29 04:10:10;;;;;;;38.47;20.23;;;10.10;58.90;;;;;;5054076;28;20041;-92
2021/12/29 04:12:39;;;;;;;52.13;22.38;;;10.20;58.80;;;;;;5054271;28;20108;-92
2021/12/29 04:15:05;;;;;;;52.47;24.00;;;10.20;58.90;;;;;;5053076;28;20009;-94
2021/12/29 04:17:37;;;;;;;38.30;19.55;;;10.30;59.10;;;;;;5054231;28;20519;-92
2021/12/29 04:22:53;;;;;;;39.13;20.35;;;10.30;58.60;;;;;;5055113;28;20096;-92
2021/12/29 04:25:23;;;;;;;43.88;21.70;;;10.40;58.40;;;;;;5066208;28;20074;-92
2021/12/29 04:27:57;;;;;;;56.15;24.65;;;10.00;58.90;;;;;;5073518;28;20025;-93
2021/12/29 04:30:25;;;;;;;48.92;21.85;;;10.20;59.00;;;;;;5073285;28;20041;-91
2021/12/29 04:32:52;;;;;;;37.92;20.45;;;10.30;58.80;;;;;;5073651;28;20107;-91
2021/12/29 04:35:20;;;;;;;38.65;19.65;;;10.40;58.20;;;;;;5073490;28;20052;-93
2021/12/29 04:37:46;;;;;;;44.17;21.38;;;10.00;58.80;;;;;;5073723;28;20021;-91
2021/12/29 04:40:13;;;;;;;40.25;20.70;;;9.70;60.70;;;;;;5073291;28;20020;-92
2021/12/29 04:42:39;;;;;;;39.25;20.80;;;9.70;59.80;;;;;;5073298;28;20025;-93
2021/12/29 04:45:06;;;;;;;45.72;22.27;;;9.80;59.60;;;;;;5070129;28;20411;-93
2021/12/29 04:47:35;;;;;;;42.55;21.27;;;9.80;59.30;;;;;;5053316;28;20013;-92
2021/12/29 04:50:02;;;;;;;38.60;21.05;;;10.10;58.80;;;;;;5053521;28;20083;-90
2021/12/29 04:52:29;;;;;;;37.17;20.05;;;10.10;58.80;;;;;;5072640;28;20035;-92
2021/12/29 04:54:55;;;;;;;35.53;19.52;;;9.60;60.30;;;;;;5073344;28;20025;-90
2021/12/29 04:57:22;;;;;;;40.58;21.45;;;9.50;60.30;;;;;;5056000;28;20031;-93
2021/12/29 04:59:48;;;;;;;39.13;19.83;;;9.50;60.50;;;;;;5053267;28;20017;-92
2021/12/29 05:02:14;;;;;;;33.75;19.25;;;9.70;60.00;;;;;;5053135;28;20082;-93
2021/12/29 05:04:48;;;;;;;42.15;21.02;;;9.60;59.70;;;;;;5053106;28;20025;-92
2021/12/29 05:09:59;;;;;;;35.95;18.42;;;10.10;58.90;;;;;;5054201;28;20094;-91
2021/12/29 05:12:25;;;;;;;34.20;18.42;;;10.00;58.60;;;;;;5062155;28;20395;-94
2021/12/29 05:14:51;;;;;;;31.90;17.65;;;9.80;59.20;;;;;;5060588;28;20044;-93
2021/12/29 05:17:17;;;;;;;34.50;19.00;;;9.70;59.10;;;;;;5053146;28;20056;-93
2021/12/29 05:20:00;;;;;;;34.03;18.40;;;9.80;58.90;;;;;;5053253;28;20020;-92
2021/12/29 05:22:26;;;;;;;33.25;17.45;;;9.60;59.40;;;;;;5052859;28;20013;-92
2021/12/29 05:24:52;;;;;;;30.75;17.25;;;9.50;59.50;;;;;;5052752;28;20025;-91
2021/12/29 05:27:17;;;;;;;38.10;18.65;;;9.20;60.20;;;;;;5052909;28;20059;-93
2021/12/29 05:29:43;;;;;;;33.78;18.02;;;9.00;61.30;;;;;;5059370;28;20046;-93
2021/12/29 05:32:09;;;;;;;34.63;18.05;;;9.30;60.50;;;;;;5060961;28;20025;-92
2021/12/29 05:34:35;;;;;;;34.60;18.17;;;9.50;60.20;;;;;;5052737;28;20051;-94
2021/12/29 05:37:01;;;;;;;35.45;18.38;;;9.80;59.20;;;;;;5053563;28;20021;-92
2021/12/29 05:39:27;;;;;;;36.90;19.42;;;9.80;59.30;;;;;;5052611;28;20025;-92
2021/12/29 05:41:52;;;;;;;34.17;18.02;;;10.00;58.80;;;;;;5052540;28;20112;-91
2021/12/29 05:44:18;;;;;;;36.53;18.52;;;10.00;58.40;;;;;;5058430;28;20017;-92
2021/12/29 05:46:44;;;;;;;35.30;17.92;;;10.00;58.60;;;;;;5072837;28;20078;-94
2021/12/29 05:49:10;;;;;;;36.78;19.08;;;10.10;58.30;;;;;;5072849;28;20024;-92
2021/12/29 05:51:37;;;;;;;32.85;17.45;;;10.30;58.10;;;;;;5072659;28;20021;-93
2021/12/29 05:54:03;;;;;;;28.30;16.33;;;10.10;58.20;;;;;;5072552;28;20027;-93
2021/12/29 05:56:28;;;;;;;38.83;19.13;;;9.90;58.40;;;;;;5072886;28;20363;-93
2021/12/29 05:58:59;;;;;;;39.05;19.00;;;9.80;59.50;;;;;;5057382;28;20021;-92
2021/12/29 06:01:25;;;;;;;74.20;30.20;;;10.00;58.80;;;;;;5052741;28;20366;-90
2021/12/29 06:03:51;;;;;;;68.47;27.85;;;10.10;58.40;;;;;;5052371;28;20017;-94
2021/12/29 06:06:17;;;;;;;59.65;26.58;;;10.10;58.60;;;;;;5060385;28;20023;-93
2021/12/29 06:08:42;;;;;;;58.00;25.52;;;10.00;59.00;;;;;;5071874;28;20158;-93
2021/12/29 06:11:08;;;;;;;52.15;22.98;;;10.10;58.30;;;;;;5072285;28;20127;-92
2021/12/29 06:13:34;;;;;;;36.45;19.08;;;10.10;58.70;;;;;;5072333;28;20130;-93
2021/12/29 06:16:00;;;;;;;35.83;17.90;;;9.90;59.00;;;;;;5072477;28;20095;-93
2021/12/29 06:18:26;;;;;;;39.90;18.77;;;9.50;60.30;;;;;;5072741;28;20355;-93
2021/12/29 06:20:51;;;;;;;47.15;21.70;;;9.60;59.70;;;;;;5070169;28;20028;-92
2021/12/29 06:23:17;;;;;;;45.55;22.77;;;9.90;59.40;;;;;;5052153;28;20017;-90
2021/12/29 06:25:43;;;;;;;42.22;21.52;;;10.10;59.00;;;;;;5052637;28;20029;-92
2021/12/29 06:28:09;;;;;;;41.08;21.20;;;10.30;58.30;;;;;;5063129;28;20115;-93
2021/12/29 06:30:35;;;;;;;39.33;19.67;;;10.50;58.20;;;;;;5052006;28;20037;-92
2021/12/29 06:33:01;;;;;;;36.10;19.15;;;10.50;58.20;;;;;;5052034;28;20107;-88
2021/12/29 06:35:27;;;;;;;41.92;19.88;;;10.50;57.70;;;;;;5052081;28;20032;-94
2021/12/29 06:37:53;;;;;;;41.08;20.58;;;10.40;58.20;;;;;;5066826;28;20017;-93
2021/12/29 06:40:19;;;;;;;41.55;21.52;;;10.50;57.70;;;;;;5075749;28;20123;-95
2021/12/29 06:42:45;;;;;;;43.03;21.02;;;10.60;57.60;;;;;;5078271;28;20389;-94
2021/12/29 06:45:14;;;;;;;47.42;21.45;;;10.50;57.50;;;;;;5077187;28;20032;-90
2021/12/29 06:47:41;;;;;;;46.97;22.02;;;10.40;57.50;;;;;;5075841;28;20082;-93
2021/12/29 06:50:08;;;;;;;41.45;21.35;;;10.20;58.10;;;;;;5075392;28;20127;-88
2021/12/29 06:52:37;;;;;;;49.38;23.52;;;10.40;57.90;;;;;;5075541;28;20021;-89
2021/12/29 06:55:09;;;;;;;95.30;43.42;;;10.50;58.20;;;;;;5075504;28;20420;-94
2021/12/29 06:57:35;;;;;;;110.85;52.38;;;10.50;58.00;;;;;;5075500;28;20046;-90
2021/12/29 07:00:02;;;;;;;52.25;26.08;;;10.60;57.40;;;;;;5076066;28;20027;-90
2021/12/29 07:02:28;;;;;;;71.00;35.15;;;10.60;57.80;;;;;;5075418;28;20014;-93
2021/12/29 07:04:54;;;;;;;81.38;40.05;;;10.70;57.80;;;;;;5075441;28;20027;-92
2021/12/29 07:07:24;;;;;;;53.83;28.48;;;10.80;58.20;;;;;;5060103;28;20428;-92
2021/12/29 07:09:50;;;;;;;50.03;26.92;;;10.90;57.40;;;;;;5055746;28;20033;-90
2021/12/29 07:12:19;;;;;;;46.83;24.02;;;10.80;57.30;;;;;;5055515;28;20021;-88
2021/12/29 07:14:45;;;;;;;36.70;20.00;;;10.80;57.70;;;;;;5055189;28;20032;-92
2021/12/29 07:17:11;;;;;;;37.13;19.50;;;10.80;57.40;;;;;;5055269;28;20024;-92
2021/12/29 07:19:37;;;;;;;44.45;24.38;;;10.70;58.00;;;;;;5054960;28;20025;-90
2021/12/29 07:22:04;;;;;;;42.88;22.65;;;10.60;58.20;;;;;;5055032;28;20089;-90
2021/12/29 07:24:31;;;;;;;36.10;19.30;;;10.30;58.20;;;;;;5054935;28;20025;-94
2021/12/29 07:27:15;;;;;;;42.78;20.85;;;10.10;59.00;;;;;;5055108;28;20025;-90
2021/12/29 07:29:42;;;;;;;45.03;22.02;;;9.90;59.20;;;;;;5067387;28;20446;-93
2021/12/29 07:32:08;;;;;;;53.45;25.98;;;9.50;60.50;;;;;;5078723;28;20114;-93
2021/12/29 07:34:34;;;;;;;48.03;22.77;;;9.50;60.40;;;;;;5078218;28;20111;-93
2021/12/29 07:37:00;;;;;;;37.67;19.92;;;9.70;60.00;;;;;;5078208;28;20108;-91
2021/12/29 07:39:26;;;;;;;39.55;19.13;;;9.60;60.00;;;;;;5078036;28;20106;-91
2021/12/29 07:41:52;;;;;;;45.47;21.10;;;9.50;60.60;;;;;;5067023;28;20107;-90
2021/12/29 07:44:19;;;;;;;42.05;21.70;;;9.40;60.30;;;;;;5057905;28;20103;-91
2021/12/29 07:46:49;;;;;;;34.63;18.13;;;9.50;60.50;;;;;;5057622;28;20017;-89
2021/12/29 07:49:15;;;;;;;48.00;22.95;;;9.80;60.20;;;;;;5057917;28;20052;-90
2021/12/29 07:51:41;;;;;;;43.20;20.70;;;9.80;59.90;;;;;;5058049;28;20110;-89
2021/12/29 07:54:07;;;;;;;39.60;18.95;;;9.90;59.90;;;;;;4358758;28;10000570;-90
2021/12/29 07:56:33;;;;;;;49.58;21.77;;;9.90;59.90;;;;;;5058493;28;20632;-89
2021/12/29 07:58:59;;;;;;;40.17;19.52;;;9.70;59.60;;;;;;5077215;28;20020;-88
2021/12/29 08:01:25;;;;;;;39.88;22.55;;;9.50;61.00;;;;;;5068777;28;20094;-88
2021/12/29 08:03:51;;;;;;;43.95;21.65;;;9.20;61.10;;;;;;5058426;28;20108;-90
2021/12/29 08:06:18;;;;;;;42.65;21.77;;;9.00;61.80;;;;;;5067225;28;20102;-88
2021/12/29 08:08:44;;;;;;;50.60;24.67;;;9.20;61.60;;;;;;5056335;28;20119;-84
2021/12/29 08:11:10;;;;;;;39.08;20.73;;;9.40;61.20;;;;;;5056214;28;20040;-87
2021/12/29 08:13:39;;;;;;;45.75;22.23;;;9.40;61.10;;;;;;5064800;28;20016;-86
2021/12/29 08:16:05;;;;;;;49.35;24.23;;;9.60;61.20;;;;;;5056447;28;20031;-87
2021/12/29 08:18:31;;;;;;;44.97;23.15;;;9.40;60.80;;;;;;5056373;28;20056;-87
2021/12/29 08:20:57;;;;;;;41.08;21.02;;;9.50;61.50;;;;;;5056394;28;20027;-92
2021/12/29 08:23:23;;;;;;;41.55;21.30;;;9.60;60.90;;;;;;5056625;28;20365;-85
2021/12/29 08:25:49;;;;;;;39.42;20.67;;;9.40;61.20;;;;;;5056574;28;20363;-88
2021/12/29 08:28:14;;;;;;;39.97;20.70;;;9.10;62.10;;;;;;5056131;28;20013;-88
2021/12/29 08:30:40;;;;;;;38.85;19.85;;;9.10;62.40;;;;;;5057465;28;20056;-89
2021/12/29 08:33:07;;;;;;;35.05;19.20;;;9.10;62.40;;;;;;5061407;28;20019;-87
2021/12/29 08:35:35;;;;;;;35.70;18.30;;;9.20;62.20;;;;;;5075874;28;20034;-87
2021/12/29 08:38:01;;;;;;;39.90;21.15;;;9.20;62.30;;;;;;5073083;28;20024;-90
2021/12/29 08:40:27;;;;;;;43.58;20.95;;;9.30;62.20;;;;;;5075954;28;20027;-86
2021/12/29 08:42:58;;;;;;;40.92;21.77;;;9.60;61.20;;;;;;5075557;28;20378;-88
2021/12/29 08:45:24;;;;;;;39.83;20.48;;;9.70;61.10;;;;;;5076437;28;20016;-87
2021/12/29 08:47:52;;;;;;;42.55;21.00;;;9.60;61.50;;;;;;5076057;28;20111;-88
2021/12/29 08:50:18;;;;;;;51.70;24.92;;;9.30;61.80;;;;;;5072158;28;20077;-87
2021/12/29 08:52:45;;;;;;;60.60;27.85;;;9.20;62.20;;;;;;5056065;28;20025;-87
2021/12/29 08:55:12;;;;;;;51.70;24.95;;;9.10;62.50;;;;;;5055753;28;20367;-88
2021/12/29 08:57:38;;;;;;;47.13;23.83;;;9.40;62.50;;;;;;5064475;28;20446;-89
2021/12/29 09:00:08;;;;;;;44.05;22.65;;;9.30;62.60;;;;;;5075787;28;20547;-87
2021/12/29 09:02:34;;;;;;;46.33;22.85;;;9.10;62.80;;;;;;5066466;28;20016;-88
2021/12/29 09:05:00;;;;;;;42.10;20.77;;;8.90;63.80;;;;;;5056026;28;20077;-87
2021/12/29 09:07:26;;;;;;;30.85;16.25;;;9.20;63.60;;;;;;5055314;28;20028;-89
2021/12/29 09:09:51;;;;;;;29.02;16.52;;;9.10;63.00;;;;;;5055773;28;20040;-87
2021/12/29 09:12:18;;;;;;;31.80;17.10;;;9.40;62.30;;;;;;5057275;28;20013;-88
2021/12/29 09:14:45;;;;;;;28.77;15.07;;;9.60;62.80;;;;;;5055329;28;20017;-86
2021/12/29 09:17:11;;;;;;;29.30;15.95;;;9.70;62.00;;;;;;5055676;28;20025;-90
2021/12/29 09:19:40;;;;;;;31.13;17.85;;;10.00;61.40;;;;;;5055467;28;20020;-88
2021/12/29 09:22:07;;;;;;;70.00;31.33;;;10.10;60.90;;;;;;5066204;28;20378;-89
2021/12/29 09:24:33;;;;;;;88.30;39.85;;;10.40;60.90;;;;;;5076013;28;20026;-87
2021/12/29 09:26:59;;;;;;;42.05;24.75;;;10.50;60.30;;;;;;5075221;28;20106;-88
2021/12/29 09:29:25;;;;;;;44.17;25.30;;;10.40;60.70;;;;;;5075744;28;20369;-87
2021/12/29 09:31:50;;;;;;;31.02;17.77;;;10.40;60.70;;;;;;5071630;28;20036;-88
2021/12/29 09:34:17;;;;;;;29.77;17.67;;;10.70;60.20;;;;;;5066739;28;20341;-88
2021/12/29 09:36:42;;;;;;;35.10;20.52;;;10.50;60.40;;;;;;5072224;28;20024;-89
2021/12/29 09:39:08;;;;;;;28.70;16.55;;;10.60;60.50;;;;;;5057509;28;20028;-87
2021/12/29 09:41:34;;;;;;;33.67;19.98;;;10.80;60.00;;;;;;5051855;28;20468;-90
2021/12/29 09:44:00;;;;;;;30.67;17.70;;;10.90;59.90;;;;;;5052015;28;20412;-89
2021/12/29 09:46:26;;;;;;;31.23;16.73;;;11.00;59.90;;;;;;5051893;28;20022;-91
2021/12/29 09:48:52;;;;;;;71.97;38.20;;;11.40;59.80;;;;;;5052215;28;20103;-88
2021/12/29 09:51:20;;;;;;;55.08;31.13;;;11.40;59.80;;;;;;5051993;28;20626;-90
2021/12/29 09:53:46;;;;;;;72.43;44.47;;;11.30;59.70;;;;;;5051607;28;20704;-87
2021/12/29 09:56:12;;;;;;;44.08;25.00;;;11.60;59.40;;;;;;5051940;28;20045;-87
2021/12/29 09:58:41;;;;;;;84.10;58.38;;;12.10;58.80;;;;;;5052051;28;20055;-86
2021/12/29 10:01:08;;;;;;;27.27;16.33;;;12.40;57.30;;;;;;5068564;28;20024;-93
2021/12/29 10:03:35;;;;;;;38.92;20.55;;;12.00;57.60;;;;;;5066441;28;20021;-90
2021/12/29 10:06:04;;;;;;;55.13;28.52;;;11.60;58.50;;;;;;5072139;28;20028;-91
2021/12/29 10:08:32;;;;;;;49.40;27.10;;;11.40;59.10;;;;;;5072000;28;20035;-88
2021/12/29 10:11:04;;;;;;;58.00;30.95;;;11.40;59.40;;;;;;5071860;28;20028;-89
2021/12/29 10:13:34;;;;;;;50.58;27.63;;;11.10;59.80;;;;;;5075116;28;20024;-85
2021/12/29 10:16:07;;;;;;;42.97;25.95;;;10.40;61.70;;;;;;5075914;28;20020;-86
2021/12/29 10:18:36;;;;;;;47.35;25.63;;;9.60;63.30;;;;;;5075251;28;20514;-90
2021/12/29 10:21:17;;;;;;;58.97;30.98;;;9.30;64.20;;;;;;5075514;28;20024;-85
2021/12/29 10:23:45;;;;;;;;;;;9.20;65.90;;;;;;5075949;28;20379;-88
2021/12/29 10:26:23;;;;;;;62.17;33.22;;;9.60;65.10;;;;;;5075617;28;19946;-86
2021/12/29 10:29:00;;;;;;;71.18;36.90;;;10.00;63.70;;;;;;5064433;28;20016;-85
2021/12/29 10:31:39;;;;;;;85.47;39.90;;;10.70;61.80;;;;;;5061438;28;20049;-85
2021/12/29 10:34:08;;;;;;;77.53;36.53;;;11.20;60.40;;;;;;5060637;28;20013;-86
2021/12/29 10:36:41;;;;;;;65.93;32.90;;;11.40;60.10;;;;;;5065354;28;20017;-89
2021/12/29 10:39:21;;;;;;;65.95;32.20;;;11.70;59.50;;;;;;5075032;28;20020;-86
2021/12/29 10:42:06;;;;;;;65.30;31.67;;;12.00;58.40;;;;;;5062774;28;20033;-87
2021/12/29 10:44:40;;;;;;;62.17;30.80;;;12.20;58.20;;;;;;5072115;28;20471;-86
2021/12/29 10:47:22;;;;;;;70.43;33.25;;;12.20;57.60;;;;;;5074572;28;20025;-91
2021/12/29 10:49:54;;;;;;;69.07;32.58;;;12.20;57.90;;;;;;5054704;28;20527;-88
2021/12/29 10:52:38;;;;;;;55.25;29.55;;;12.10;57.80;;;;;;5055090;28;20426;-89
2021/12/29 10:55:09;;;;;;;54.70;29.58;;;12.10;58.10;;;;;;5074741;28;20020;-86
2021/12/29 10:57:35;;;;;;;53.50;29.30;;;12.00;57.90;;;;;;5071186;28;20407;-95
2021/12/29 11:00:08;;;;;;;59.97;30.17;;;11.80;58.40;;;;;;5054813;28;20031;-86
2021/12/29 11:02:37;;;;;;;56.22;29.77;;;12.00;58.30;;;;;;5054869;28;20036;-92
2021/12/29 11:05:09;;;;;;;55.50;29.85;;;12.20;57.90;;;;;;5054698;28;20353;-94
2021/12/29 11:07:38;;;;;;;64.43;30.88;;;12.20;57.40;;;;;;5054193;28;20017;-84
2021/12/29 11:10:15;;;;;;;54.03;28.75;;;12.20;57.80;;;;;;5061581;28;20051;-85
2021/12/29 11:12:55;;;;;;;49.85;26.05;;;12.30;57.20;;;;;;5074618;28;20356;-87
2021/12/29 11:15:23;;;;;;;53.50;28.35;;;12.10;57.70;;;;;;5068097;28;20017;-87
2021/12/29 11:17:52;;;;;;;59.70;32.05;;;11.80;58.40;;;;;;5065199;28;20411;-90
2021/12/29 11:20:22;;;;;;;57.55;30.33;;;11.60;59.10;;;;;;5074232;28;20478;-87
2021/12/29 11:22:48;;;;;;;61.97;30.87;;;11.50;59.80;;;;;;5063949;28;20017;-85
2021/12/29 11:25:14;;;;;;;62.85;31.83;;;11.50;60.10;;;;;;5067124;28;20277;-88
2021/12/29 11:27:40;;;;;;;57.20;30.42;;;11.50;59.60;;;;;;5069449;28;20454;-85
2021/12/29 11:30:11;;;;;;;60.50;30.38;;;11.40;59.50;;;;;;5053312;28;20067;-88
2021/12/29 11:32:42;;;;;;;56.85;29.05;;;11.50;60.10;;;;;;5055918;28;20020;-87
2021/12/29 11:35:24;;;;;;;66.38;30.85;;;11.70;59.70;;;;;;5072496;28;20021;-86
2021/12/29 11:37:53;;;;;;;51.72;27.83;;;11.60;59.70;;;;;;5054122;28;20106;-88
2021/12/29 11:40:28;;;;;;;51.85;31.95;;;11.60;60.50;;;;;;5053662;28;20025;-89
2021/12/29 11:42:55;;;;;;;58.55;32.90;;;11.90;59.70;;;;;;5053634;28;20028;-90
2021/12/29 11:45:22;;;;;;;48.63;30.85;;;11.80;59.70;;;;;;5054214;28;20025;-89
2021/12/29 11:47:49;;;;;;;47.13;24.73;;;11.80;59.70;;;;;;5071180;28;20070;-90
2021/12/29 11:50:23;;;;;;;60.60;30.10;;;11.90;59.50;;;;;;5073833;28;20113;-88
2021/12/29 11:53:15;;;;;;;50.35;27.63;;;11.70;59.10;;;;;;5073472;28;20042;-92
2021/12/29 11:55:56;;;;;;;58.60;29.17;;;11.50;60.00;;;;;;5073079;28;20110;-88
2021/12/29 11:58:24;;;;;;;;;;;11.40;60.20;;;;;;5055123;28;20017;-88
2021/12/29 12:01:17;;;;;;;69.43;36.40;;;11.30;60.30;;;;;;5056727;28;19911;-90
2021/12/29 12:04:00;;;;;;;48.15;24.00;;;11.10;61.10;;;;;;5062047;28;20080;-87
2021/12/29 12:06:41;;;;;;;54.00;30.55;;;11.30;60.90;;;;;;5062771;28;20024;-89
2021/12/29 12:09:18;;;;;;;49.35;29.27;;;11.70;60.70;;;;;;5060011;28;20021;-91
2021/12/29 12:11:53;;;;;;;46.88;28.25;;;11.80;60.00;;;;;;5059251;28;20068;-88
2021/12/29 12:14:23;;;;;;;54.92;30.13;;;11.80;59.80;;;;;;5057187;28;20028;-88
2021/12/29 12:16:58;;;;;;;41.97;25.35;;;11.80;59.70;;;;;;5055399;28;20108;-89
2021/12/29 12:19:28;;;;;;;44.13;23.77;;;11.50;60.20;;;;;;5056515;28;20473;-89
2021/12/29 12:22:19;;;;;;;44.15;25.25;;;11.10;61.40;;;;;;5057569;28;20021;-90
2021/12/29 12:24:51;;;;;;;48.67;29.65;;;11.30;61.40;;;;;;5058276;28;20029;-89
2021/12/29 12:27:31;;;;;;;73.63;49.92;;;11.60;60.80;;;;;;5058020;28;20028;-87
2021/12/29 12:30:19;;;;;;;49.97;28.45;;;11.70;60.30;;;;;;5057989;28;20087;-88
2021/12/29 12:32:46;;;;;;;50.92;30.55;;;11.90;60.20;;;;;;5057548;28;20021;-88
2021/12/29 12:35:14;;;;;;;70.85;40.95;;;12.00;59.90;;;;;;5056743;28;20021;-88
2021/12/29 12:37:45;;;;;;;46.47;28.25;;;12.10;59.40;;;;;;5058119;28;20360;-88
2021/12/29 12:40:24;;;;;;;47.90;29.10;;;12.20;59.10;;;;;;5059255;28;20028;-89
2021/12/29 12:43:11;;;;;;;43.20;25.85;;;12.30;59.30;;;;;;5059851;28;20025;-92
2021/12/29 12:45:41;;;;;;;39.03;24.40;;;12.40;59.30;;;;;;5058659;28;20017;-88
2021/12/29 12:48:13;;;;;;;27.42;16.88;;;12.40;59.00;;;;;;5057934;28;20017;-95